Weather observations for the past three days for
Dillon, Dillon Airport
Metric (Imperial)
Date Time (mdt) Wind (kph) Vis. (km) Weather Sky Cond. Temperature (ºC) Relative Humidity Wind Chill (°C) Heat Index (°C) Pressure Precipitation (cm)
Air Dwpt 6 hour altimeter (cm) sea level (mb) 1 hr 3 hr 6 hr
Max. Min.
04 07:53 NE 33 16.09 Fair and Breezy CLR 7.2 -3.3 48% 3 76.02 1010.3
04 06:53 NE 17 16.09 Fair CLR 5 -2.2 60% 2 76 1009.7
04 05:53 NE 9 16.09 Fair CLR 5.6 -2.8 10.6 3.9 55% 4 75.97 1009.1
04 04:53 SW 19 16.09 Fair CLR 6.1 -3.9 49% 3 75.9 1007.9
04 03:53 S 19 16.09 Fair CLR 6.1 -3.9 49% 3 75.87 1007.9
04 02:53 S 11 16.09 Fair CLR 7.8 -4.4 42% 6 75.9 1007.8
04 00:53 S 11 16.09 Fair CLR 9.4 -5 36% 8 75.9 1007.8
03 23:53 S 11 16.09 Fair CLR 10.6 -4.4 21.1 7.2 35% 75.9 1007.9
03 22:53 S 6 16.09 Fair CLR 9.4 -5 36% 75.9 1008.2
03 21:53 SE 7 16.09 Fair CLR 10 -5.6 33% 9 75.84 1008.1
03 20:53 NW 9 16.09 Fair CLR 15 -5 25% 75.82 1007.3
03 19:53 NW 13 16.09 Fair CLR 18.3 -4.4 21% 75.79 1007.1
03 18:53 NW 9 16.09 Fair CLR 21.1 -6.1 16% 75.82 1007.5
03 17:53 N 15 16.09 A Few Clouds FEW120 20.6 -6.1 22.2 17.8 16% 75.84 1008.0
03 16:53 Vrbl 7 16.09 Fair CLR 21.7 -5.6 16% 75.9 1008.0
03 15:53 Vrbl 6 16.09 Fair CLR 21.1 -4.4 18% 75.95 1008.9
03 14:53 Calm 16.09 Fair CLR 20.6 -3.9 19% 76.02 1009.8
03 13:53 Vrbl 9 16.09 A Few Clouds FEW100 20.6 -3.3 20% 76.07 1010.1
03 12:53 Vrbl 11 16.09 Fair CLR 20 -3.3 21% 76.12 1011.6
03 11:53 Calm 16.09 Fair CLR 17.8 -2.8 18.3 2.2 25% 76.2 1011.9
03 10:53 Vrbl 6 16.09 Fair CLR 15.6 -2.8 28% 76.25 1013.0
03 09:53 SW 15 16.09 Fair CLR 13.3 -3.3 32% 76.28 1013.6
03 08:53 SW 13 16.09 Fair CLR 9.4 -3.3 41% 8 76.33 1014.7
03 07:53 SW 13 16.09 Fair CLR 5.6 -3.3 53% 3 76.33 1014.8
03 06:53 S 20 16.09 Fair CLR 2.8 -4.4 59% -1 76.3 1014.8
03 05:53 S 20 16.09 Fair CLR 2.2 -4.4 10.6 1.1 62% -2 76.33 1014.5
03 04:53 SW 11 16.09 Fair CLR 4.4 -3.9 55% 2 76.33 1014.1
03 03:53 S 9 16.09 Fair CLR 5 -3.9 53% 3 76.33 1013.9
03 02:53 S 13 16.09 Fair CLR 5.6 -5.6 45% 3 76.3 1013.6
03 01:53 S 15 16.09 Fair CLR 8.9 -2.8 44% 7 76.3 1013.4
03 00:53 SW 13 16.09 Fair CLR 4.4 -4.4 53% 2 76.3 1014.2
02 23:53 SE 6 16.09 Fair CLR 10.6 -3.3 21.1 8.9 38% 76.28 1013.3
02 22:53 E 15 16.09 Fair CLR 10.6 -3.9 36% 76.25 1013.2
02 21:53 E 13 16.09 Fair CLR 11.7 -3.9 34% 76.23 1013.4
02 20:53 E 13 16.09 Fair CLR 12.8 -10 20% 76.17 1012.9
02 19:53 W 11 16.09 Fair CLR 17.2 -7.2 18% 76.15 1012.3
02 18:53 NW 11 16.09 Fair CLR 18.3 -7.8 16% 76.15 1012.4
02 17:53 NW 20 16.09 Fair CLR 20.6 -11.1 22.8 18.3 11% 76.15 1012.3
02 16:53 NW 22 G 37 16.09 Fair CLR 22.2 -12.8 9% 76.15 1012.0
02 15:53 W 20 G 41 16.09 Fair CLR 22.2 -12.8 9% 76.23 1012.4
02 14:53 W 17 G 28 16.09 Fair CLR 22.2 -11.7 9% 76.28 1012.9
02 13:53 W 17 G 35 16.09 Fair CLR 21.1 -11.1 10% 76.33 1013.8
02 12:53 S 13 16.09 Fair CLR 20 -10 12% 76.38 1014.8
02 11:53 S 7 16.09 Fair CLR 18.3 -9.4 18.3 1.7 14% 76.43 1016.0
02 10:53 Calm 16.09 Fair CLR 15.6 -8.9 18% 76.48 1016.6
02 09:53 SW 9 16.09 Fair CLR 11.7 -6.7 27% 76.53 1017.2
02 08:53 SW 13 16.09 Fair CLR 8.9 -6.7 33% 7 76.53 1018.3
02 07:53 S 11 16.09 Fair CLR 5 -6.1 45% 3 76.56 1017.9
02 06:53 SW 20 16.09 Fair CLR 3.3 -7.2 46% -1 76.53 1017.4
02 05:53 S 17 16.09 Fair CLR 2.2 -7.8 7.8 2.2 48% -2 76.5 1017.4
02 04:53 SW 17 16.09 Fair CLR 2.8 -8.3 44% -1 76.5 1017.4
02 03:53 S 20 16.09 Fair CLR 5 -7.8 39% 1 76.5 1017.0
02 02:53 S 17 16.09 Fair CLR 6.7 -6.7 38% 4 76.5 1016.6
02 01:53 S 22 16.09 Fair CLR 6.7 -6.7 38% 3 76.5 1017.0
02 00:53 S 20 16.09 Fair CLR 6.1 -6.1 42% 3 76.48 1017.1
01 23:53 W 6 16.09 Fair CLR 6.1 -7.8 20 6.1 37% 76.45 1017.1
01 22:53 SW 9 16.09 Fair CLR 8.3 -7.2 33% 7 76.45 1016.6
01 21:53 W 6 16.09 Fair CLR 12.8 -9.4 21% 76.4 1016.0
01 20:53 SE 15 16.09 Fair CLR 10 -7.8 28% 8 76.35 1016.2
01 19:53 SE 9 16.09 Fair CLR 17.2 -11.1 13% 76.33 1015.5
01 18:53 E 7 16.09 Fair CLR 19.4 -15 8% 76.35 1016.0
01 17:53 E 9 16.09 Fair CLR 20 -17.2 20 13.3 7% 76.38 1016.7
01 16:53 Calm 16.09 Fair CLR 19.4 -17.8 7% 76.4 1016.1
01 15:53 Calm 16.09 Fair CLR 19.4 -16.7 7% 76.45 1017.5
01 14:53 Vrbl 9 16.09 Fair CLR 18.3 -12.8 11% 76.53 1018.5
01 13:53 S 11 16.09 Fair CLR 16.7 -11.1 14% 76.56 1019.1
01 12:53 SE 15 16.09 Fair CLR 16.1 -9.4 17% 76.61 1019.0
01 11:53 Vrbl 6 16.09 Fair CLR 13.3 -8.3 13.9 -3.9 22% 76.66 1020.4
01 10:53 W 9 16.09 Fair CLR 12.2 -7.2 25% 76.71 1020.8
01 09:53 SW 15 16.09 Fair CLR 8.9 -6.7 33% 7 76.71 1021.8
01 08:53 SW 17 16.09 Fair CLR 6.1 -6.1 42% 3 76.73 1022.3
Date Time (mdt) Wind (kph) Vis. (km) Weather Sky Cond. Air Dwpt Max. Min. Relative Humidity Wind Chill (°C) Heat Index (°C) altimeter (cm) sea level (mb) 1 hr 3 hr 6 hr
6 hour
Temperature (ºC) Pressure Precipitation (cm)